Time;durP1;ratioP1;P1;durP2;ratioP2;P2;SDS_P1;SDS_P2;PMS_P1;PMS_P2;Temp;Humidity;BMP_temperature;BMP_pressure;BME280_temperature;BME280_humidity;BME280_pressure;Samples;Min_cycle;Max_cycle;Signal;HPM_P1;HPM_P2
2022/06/14 00:02:48;;;;;;;2.75;1.50;;;;;;;12.18;62.15;100989.50;1781117;78;27466;-60
2022/06/14 00:05:14;;;;;;;3.87;1.60;;;;;;;12.16;62.33;100999.91;1783840;78;98940;-61
2022/06/14 00:07:40;;;;;;;5.12;1.70;;;;;;;12.13;62.56;100999.58;1757900;79;25819;-60
2022/06/14 00:10:08;;;;;;;6.08;1.72;;;;;;;12.09;62.57;100999.78;1779632;78;25806;-60
2022/06/14 00:12:35;;;;;;;4.78;1.72;;;;;;;12.07;62.81;101004.34;1775694;78;98709;-59
2022/06/14 00:15:02;;;;;;;8.48;1.42;;;;;;;12.04;62.95;101009.39;1758865;78;28161;-59
2022/06/14 00:17:31;;;;;;;2.87;1.22;;;;;;;12.00;63.10;101005.96;1800179;77;98886;-59
2022/06/14 00:20:00;;;;;;;2.42;1.50;;;;;;;11.97;63.22;101004.75;1798082;77;25796;-59
2022/06/14 00:22:26;;;;;;;4.97;1.40;;;;;;;11.96;63.26;101006.16;1795878;77;26428;-59
2022/06/14 00:24:56;;;;;;;3.02;1.95;;;;;;;11.93;63.37;100999.58;1800194;77;98755;-59
2022/06/14 00:27:24;;;;;;;4.83;1.62;;;;;;;11.90;63.53;101007.30;1790283;77;33121;-59
2022/06/14 00:29:51;;;;;;;3.42;1.25;;;;;;;11.88;63.65;101009.64;1792397;77;98767;-60
2022/06/14 00:32:19;;;;;;;1.95;1.27;;;;;;;11.85;63.68;101002.59;1790928;77;25970;-60
2022/06/14 00:34:49;;;;;;;6.58;1.62;;;;;;;11.84;64.18;101020.11;1795415;77;26487;-61
2022/06/14 00:37:18;;;;;;;4.15;1.27;;;;;;;11.81;64.15;101010.37;1802581;77;98591;-59
2022/06/14 00:39:48;;;;;;;2.50;1.60;;;;;;;11.80;64.38;101022.53;1795416;77;26804;-59
2022/06/14 00:42:19;;;;;;;2.22;1.50;;;;;;;11.77;64.40;101018.16;1791192;77;99046;-59
2022/06/14 00:45:15;;;;;;;4.37;2.10;;;;;;;11.76;64.54;101020.41;1765837;78;32512;-59
2022/06/14 00:47:52;;;;;;;4.40;1.50;;;;;;;11.73;65.06;101020.53;1797476;77;98775;-59
2022/06/14 00:50:26;;;;;;;3.35;1.30;;;;;;;11.69;65.29;101026.50;1804229;77;26316;-59
2022/06/14 00:53:07;;;;;;;4.55;1.85;;;;;;;11.68;65.49;101022.54;1797668;77;27432;-60
2022/06/14 00:55:44;;;;;;;4.80;1.75;;;;;;;11.66;65.45;101019.05;1788446;77;98392;-61
2022/06/14 00:58:17;;;;;;;5.67;1.55;;;;;;;11.63;65.59;101017.83;1805100;77;25785;-58
2022/06/14 01:01:01;;;;;;;2.45;1.77;;;;;;;11.60;65.72;101024.20;1792942;77;98688;-59
2022/06/14 01:03:33;;;;;;;4.33;1.92;;;;;;;11.60;66.14;101021.98;1763730;77;25812;-58
2022/06/14 01:06:19;;;;;;;3.47;1.72;;;;;;;11.56;66.07;101020.36;1793174;77;98732;-59
2022/06/14 01:08:56;;;;;;;3.42;1.85;;;;;;;11.55;66.29;101015.93;1792119;77;26146;-61
2022/06/14 01:11:30;;;;;;;3.45;1.60;;;;;;;11.54;66.39;101027.14;1794514;77;98804;-58
2022/06/14 01:14:00;;;;;;;4.50;1.47;;;;;;;11.50;66.35;101024.17;1784314;77;27858;-61
2022/06/14 01:16:29;;;;;;;4.42;1.90;;;;;;;11.50;66.46;101021.95;1791433;77;25756;-59
2022/06/14 01:18:55;;;;;;;3.10;1.35;;;;;;;11.49;66.57;101022.42;1788031;77;98582;-59
2022/06/14 01:21:23;;;;;;;3.50;2.12;;;;;;;11.46;66.60;101023.02;1803129;77;25615;-61
2022/06/14 01:23:51;;;;;;;5.20;1.75;;;;;;;11.44;66.96;101026.23;1804781;77;98986;-59
2022/06/14 01:26:22;;;;;;;2.17;1.50;;;;;;;11.39;67.00;101025.08;1801783;77;25800;-59
2022/06/14 01:28:51;;;;;;;;;;;;;;;11.35;67.19;101022.98;1811183;77;25927;-59
2022/06/14 01:31:20;;;;;;;3.45;1.50;;;;;;;11.31;67.38;101023.17;1803429;77;84453;-59
2022/06/14 01:33:50;;;;;;;8.78;1.82;;;;;;;11.27;67.42;101030.48;1779752;78;25726;-59
2022/06/14 01:36:30;;;;;;;7.50;2.25;;;;;;;11.26;67.96;101029.20;1808620;77;98780;-59
2022/06/14 01:39:02;;;;;;;2.17;1.40;;;;;;;11.22;68.12;101030.25;1812433;77;25853;-59
2022/06/14 01:41:56;;;;;;;2.42;1.35;;;;;;;11.19;68.14;101028.56;1780541;78;98812;-59
2022/06/14 01:44:51;;;;;;;4.20;1.65;;;;;;;11.17;68.07;101025.07;1800628;77;28960;-61
2022/06/14 01:47:26;;;;;;;6.12;1.70;;;;;;;11.16;68.24;101027.34;1808670;77;98859;-59
2022/06/14 01:53:16;;;;;;;4.65;1.60;;;;;;;11.12;68.66;101023.03;1807669;77;25781;-60
2022/06/14 01:56:17;;;;;;;2.87;1.42;;;;;;;11.12;68.60;101036.45;1801272;77;98646;-61
2022/06/14 01:59:00;;;;;;;2.25;1.20;;;;;;;11.11;68.59;101032.48;1802432;77;27352;-60
2022/06/14 02:01:52;;;;;;;2.45;1.27;;;;;;;11.09;68.74;101038.38;1799591;77;98591;-58
2022/06/14 02:04:39;;;;;;;5.62;2.02;;;;;;;11.09;68.91;101041.06;1811038;77;25720;-61
2022/06/14 02:07:28;;;;;;;6.03;1.40;;;;;;;11.08;69.02;101050.04;1805110;77;98793;-60
2022/06/14 02:10:08;;;;;;;5.08;1.90;;;;;;;11.05;69.09;101049.70;1797417;77;25769;-60
2022/06/14 02:13:07;;;;;;;6.03;1.62;;;;;;;11.01;69.19;101049.41;1811931;77;98615;-60
2022/06/14 02:15:57;;;;;;;6.75;1.72;;;;;;;10.98;69.24;101058.91;1805897;77;26565;-59
2022/06/14 02:18:40;;;;;;;5.55;1.77;;;;;;;10.96;69.56;101055.41;1803946;77;98797;-59
2022/06/14 02:21:13;;;;;;;2.50;1.70;;;;;;;10.92;69.56;101056.00;1801346;77;25856;-59
2022/06/14 02:23:44;;;;;;;6.35;2.33;;;;;;;10.92;69.66;101063.17;1801663;77;98759;-59
2022/06/14 02:26:40;;;;;;;3.12;1.27;;;;;;;10.93;69.66;101059.55;1806381;77;28525;-59
2022/06/14 02:29:14;;;;;;;8.38;1.80;;;;;;;10.92;69.64;101057.80;1810383;77;26320;-60
2022/06/14 02:32:10;;;;;;;4.30;1.50;;;;;;;10.89;69.76;101063.28;1796973;77;98536;-59
2022/06/14 02:34:50;;;;;;;4.00;1.77;;;;;;;10.86;69.85;101067.42;1801729;77;25807;-59
2022/06/14 02:37:21;;;;;;;4.25;2.15;;;;;;;10.84;69.97;101075.99;1800738;77;98589;-59
2022/06/14 02:40:11;;;;;;;3.58;1.60;;;;;;;10.80;70.03;101066.31;1800960;77;27473;-59
2022/06/14 02:42:45;;;;;;;2.92;1.75;;;;;;;10.75;70.15;101066.48;1805091;77;98571;-59
2022/06/14 02:45:19;;;;;;;4.92;1.92;;;;;;;10.72;70.50;101071.50;1801074;77;26590;-59
2022/06/14 02:48:06;;;;;;;3.42;1.92;;;;;;;10.69;70.46;101073.41;1787646;77;98912;-60
2022/06/14 02:51:00;;;;;;;5.65;2.22;;;;;;;10.78;70.69;101070.86;1803881;77;25668;-59
2022/06/14 02:53:34;;;;;;;5.45;1.90;;;;;;;10.73;71.08;101072.38;1805393;77;98957;-59
2022/06/14 02:56:13;;;;;;;4.70;1.50;;;;;;;10.70;71.06;101071.14;1797535;77;27249;-59
2022/06/14 02:58:50;;;;;;;4.12;1.70;;;;;;;10.72;71.13;101072.84;1799191;77;25715;-61
2022/06/14 03:01:31;;;;;;;3.52;1.57;;;;;;;10.70;71.15;101074.70;1810972;77;99273;-59
2022/06/14 03:04:11;;;;;;;9.73;2.22;;;;;;;10.73;71.17;101076.39;1807562;77;26039;-59
2022/06/14 03:06:57;;;;;;;12.73;2.00;;;;;;;10.76;71.24;101076.74;1806829;77;98682;-60
2022/06/14 03:09:27;;;;;;;5.40;2.85;;;;;;;10.74;71.30;101076.34;1810141;77;25848;-60
2022/06/14 03:12:24;;;;;;;5.10;1.75;;;;;;;10.74;71.26;101084.37;1799981;77;98951;-60
2022/06/14 03:14:56;;;;;;;2.92;1.70;;;;;;;10.77;71.40;101077.16;1808474;76;27222;-60
2022/06/14 03:17:55;;;;;;;3.90;1.57;;;;;;;10.78;71.41;101077.09;1814652;76;99039;-60
2022/06/14 03:20:37;;;;;;;5.90;1.65;;;;;;;10.80;71.38;101088.64;1791333;76;27418;-59
2022/06/14 03:23:23;;;;;;;2.37;1.20;;;;;;;10.78;71.40;101083.80;1811037;76;25898;-61
2022/06/14 03:26:07;;;;;;;7.28;2.08;;;;;;;10.82;71.37;101081.88;1809466;76;98578;-62
2022/06/14 03:28:52;;;;;;;3.20;1.77;;;;;;;10.82;71.42;101092.14;1808135;76;25963;-62
2022/06/14 03:31:48;;;;;;;5.12;1.82;;;;;;;10.83;71.46;101090.33;1815947;76;98675;-62
2022/06/14 03:34:35;;;;;;;7.35;1.85;;;;;;;10.83;71.40;101091.20;1814142;76;28079;-61
2022/06/14 03:37:04;;;;;;;3.77;1.52;;;;;;;10.83;71.47;101089.86;1812568;76;98760;-61
2022/06/14 03:39:36;;;;;;;5.67;1.37;;;;;;;10.83;71.58;101093.02;1789070;78;25962;-62
2022/06/14 03:42:10;;;;;;;5.40;1.70;;;;;;;10.84;71.65;101093.42;1784059;78;98862;-61
2022/06/14 03:44:40;;;;;;;3.37;1.30;;;;;;;10.84;71.71;101094.30;1788616;77;25884;-62
2022/06/14 03:47:27;;;;;;;4.78;1.80;;;;;;;10.87;71.66;101095.52;1783335;78;27389;-61
2022/06/14 03:49:57;;;;;;;4.58;1.40;;;;;;;10.89;71.63;101095.00;1775640;78;98571;-62
2022/06/14 03:52:47;;;;;;;8.58;1.55;;;;;;;10.92;71.74;101099.38;1788170;78;25850;-62
2022/06/14 03:55:36;;;;;;;6.12;1.37;;;;;;;10.96;71.89;101091.63;1774749;78;98801;-62
2022/06/14 03:58:36;;;;;;;4.22;1.72;;;;;;;10.98;71.84;101094.66;1746492;79;25780;-62
2022/06/14 04:01:13;;;;;;;8.40;1.60;;;;;;;11.02;72.01;101087.36;1749540;78;98674;-61
2022/06/14 04:04:18;;;;;;;7.33;1.90;;;;;;;11.04;71.87;101092.20;1777458;78;25753;-62
2022/06/14 04:07:01;;;;;;;9.75;2.00;;;;;;;11.06;71.87;101090.34;1799316;77;98734;-63
2022/06/14 04:09:58;;;;;;;1.95;1.25;;;;;;;11.08;72.01;101099.67;1792969;77;25794;-62
2022/06/14 04:12:56;;;;;;;6.28;2.12;;;;;;;11.10;71.97;101096.00;1790172;77;97790;-62
2022/06/14 04:15:47;;;;;;;5.42;1.70;;;;;;;11.14;71.90;101104.34;1789090;77;27839;-61
2022/06/14 04:18:38;;;;;;;6.65;2.08;;;;;;;11.14;72.06;101100.78;1783162;77;98972;-61
2022/06/14 04:21:37;;;;;;;7.17;1.67;;;;;;;11.17;72.00;101101.53;1808682;76;25773;-61
2022/06/14 04:24:31;;;;;;;9.75;1.82;;;;;;;11.20;72.00;101097.86;1806038;77;98801;-62
2022/06/14 04:27:12;;;;;;;3.47;1.75;;;;;;;11.24;72.29;101115.59;1810061;76;26333;-62
2022/06/14 04:29:58;;;;;;;4.17;2.00;;;;;;;11.26;72.13;101107.89;1799156;76;98922;-62
2022/06/14 04:32:42;;;;;;;5.15;1.70;;;;;;;11.30;72.16;101100.59;1808876;77;27158;-62
2022/06/14 04:35:28;;;;;;;5.05;1.87;;;;;;;11.35;72.19;101099.95;1812316;76;26371;-62
2022/06/14 04:38:19;;;;;;;9.73;1.72;;;;;;;11.40;72.17;101100.64;1807463;77;98475;-61
2022/06/14 04:41:05;;;;;;;12.43;2.40;;;;;;;11.48;72.06;101099.00;1808032;77;26292;-62
2022/06/14 04:43:40;;;;;;;8.78;1.82;;;;;;;11.53;72.05;101101.91;1739221;80;99070;-63
2022/06/14 04:46:12;;;;;;;7.65;1.90;;;;;;;11.61;72.06;101110.52;1786118;77;25914;-61
2022/06/14 04:48:43;;;;;;;7.15;1.80;;;;;;;11.67;72.16;101115.64;1808241;76;98706;-62
2022/06/14 04:51:24;;;;;;;9.03;1.55;;;;;;;11.72;71.93;101111.44;1798260;76;26093;-61
2022/06/14 04:53:59;;;;;;;8.78;2.08;;;;;;;11.78;71.94;101112.56;1812258;77;98828;-61
2022/06/14 04:56:32;;;;;;;8.08;2.05;;;;;;;11.85;71.85;101104.66;1801888;76;27479;-61
2022/06/14 04:59:06;;;;;;;9.75;1.87;;;;;;;11.91;71.82;101108.91;1806000;76;25673;-61
2022/06/14 05:01:49;;;;;;;8.65;1.90;;;;;;;11.98;71.65;101106.37;1813873;76;99463;-61
2022/06/14 05:04:24;;;;;;;6.75;1.62;;;;;;;12.04;71.52;101104.77;1806915;76;26078;-62
2022/06/14 05:07:04;;;;;;;7.40;1.80;;;;;;;12.06;71.33;101104.23;1805150;77;98660;-61
2022/06/14 05:09:36;;;;;;;6.37;2.10;;;;;;;12.11;71.23;101114.79;1806983;76;27387;-61
2022/06/14 05:12:25;;;;;;;10.45;1.87;;;;;;;12.13;71.11;101107.06;1809713;76;98813;-61
2022/06/14 05:15:02;;;;;;;7.58;1.72;;;;;;;12.18;71.03;101114.94;1804211;76;25792;-61
2022/06/14 05:17:35;;;;;;;5.15;1.57;;;;;;;12.26;70.90;101123.55;1815903;76;26898;-61
2022/06/14 05:20:36;;;;;;;8.85;2.20;;;;;;;12.29;70.73;101124.28;1758312;79;99044;-61
2022/06/14 05:23:19;;;;;;;11.65;2.15;;;;;;;12.32;70.70;101117.91;1794383;77;27935;-63
2022/06/14 05:26:25;;;;;;;6.03;1.75;;;;;;;12.37;70.57;101125.30;1781413;78;99328;-61
2022/06/14 05:29:12;;;;;;;7.17;2.35;;;;;;;12.44;70.51;101129.47;1745240;79;26446;-62
2022/06/14 05:31:52;;;;;;;5.60;1.62;;;;;;;12.50;70.40;101115.77;1797088;77;98604;-62
2022/06/14 05:34:53;;;;;;;12.00;1.95;;;;;;;12.59;70.32;101123.90;1775411;78;25768;-62
2022/06/14 05:37:40;;;;;;;8.45;1.82;;;;;;;12.68;70.08;101114.95;1748062;78;98888;-62
2022/06/14 05:40:17;;;;;;;9.15;1.72;;;;;;;12.78;69.99;101127.52;1769155;79;25839;-62
2022/06/14 05:43:10;;;;;;;12.43;3.05;;;;;;;12.82;69.75;101136.33;1769357;80;98708;-62
2022/06/14 05:45:50;;;;;;;6.72;2.30;;;;;;;12.84;69.56;101127.72;1771660;78;26492;-61
2022/06/14 05:48:34;;;;;;;5.45;1.65;;;;;;;12.91;69.44;101126.50;1772602;79;98907;-61
2022/06/14 05:51:03;;;;;;;8.38;2.20;;;;;;;12.99;69.36;101128.37;1777167;78;25829;-61
2022/06/14 05:53:43;;;;;;;6.28;2.00;;;;;;;13.09;69.12;101118.89;1779142;78;26107;-61
2022/06/14 05:56:40;;;;;;;10.63;1.67;;;;;;;13.16;68.90;101135.20;1780235;78;98639;-62
2022/06/14 05:59:32;;;;;;;7.33;2.10;;;;;;;13.18;68.71;101114.47;1768575;78;26739;-61
2022/06/14 06:02:17;;;;;;;8.30;2.12;;;;;;;13.27;68.55;101122.59;1769144;78;98593;-61
2022/06/14 06:05:04;;;;;;;12.13;2.35;;;;;;;13.35;68.31;101115.02;1769042;78;27595;-61
2022/06/14 06:07:35;;;;;;;6.55;1.67;;;;;;;13.44;68.06;101124.48;1762991;78;98903;-61
2022/06/14 06:10:10;;;;;;;7.45;2.22;;;;;;;13.51;67.77;101116.03;1769462;79;25763;-61
2022/06/14 06:12:50;;;;;;;5.97;1.60;;;;;;;13.62;67.61;101112.83;1763670;79;98785;-62
2022/06/14 06:15:40;;;;;;;11.70;1.52;;;;;;;13.78;66.81;101104.87;1772796;78;25727;-63
2022/06/14 06:18:12;;;;;;;10.23;1.77;;;;;;;13.78;66.81;101104.87;1735033;78;99504;-63
2022/06/14 06:20:55;;;;;;;14.73;2.02;;;;;;;13.88;66.37;101115.12;1780662;79;25840;-62
2022/06/14 06:23:29;;;;;;;6.87;1.57;;;;;;;13.93;65.83;101106.33;1784116;78;25864;-61
2022/06/14 06:26:00;;;;;;;7.87;1.57;;;;;;;13.96;65.11;101116.96;1775129;78;98701;-62
2022/06/14 06:28:39;;;;;;;3.58;1.07;;;;;;;13.90;64.57;101117.73;1785979;78;25758;-61
2022/06/14 06:31:16;;;;;;;10.10;2.20;;;;;;;13.88;64.21;101112.42;1775503;78;99086;-61
2022/06/14 06:33:51;;;;;;;10.43;2.40;;;;;;;13.91;64.05;101110.92;1775665;78;26530;-63
2022/06/14 06:37:07;;;;;;;17.37;2.45;;;;;;;13.95;63.99;101115.69;1778752;78;99495;-63
2022/06/14 06:39:53;;;;;;;13.58;2.45;;;;;;;14.05;63.59;101116.10;1774880;79;26091;-63
2022/06/14 06:42:39;;;;;;;4.58;1.52;;;;;;;14.12;63.21;101119.76;1778255;78;99127;-63
2022/06/14 06:45:37;;;;;;;6.72;1.40;;;;;;;14.23;63.03;101126.83;1771177;78;29540;-63
2022/06/14 06:48:14;;;;;;;6.78;1.52;;;;;;;14.36;62.52;101125.73;1769348;79;98986;-62
2022/06/14 06:50:50;;;;;;;15.35;2.35;;;;;;;14.52;62.32;101115.92;1784412;78;25782;-63
2022/06/14 06:53:23;;;;;;;9.90;1.75;;;;;;;14.65;61.59;101116.62;1776787;79;26108;-62
2022/06/14 06:56:06;;;;;;;9.90;1.57;;;;;;;14.68;61.18;101132.66;1778729;78;98605;-61
2022/06/14 06:58:41;;;;;;;9.10;1.62;;;;;;;14.79;60.81;101119.47;1775051;79;28194;-61
2022/06/14 07:01:17;;;;;;;9.40;1.55;;;;;;;14.91;60.47;101117.47;1772398;78;97841;-62
2022/06/14 07:03:58;;;;;;;8.48;1.60;;;;;;;15.05;59.98;101116.72;1760611;79;25919;-61
2022/06/14 07:06:36;;;;;;;13.32;1.82;;;;;;;15.06;59.48;101122.52;1768748;78;98865;-61
2022/06/14 07:09:16;;;;;;;8.20;2.05;;;;;;;15.06;58.60;101132.84;1777400;79;25814;-61
2022/06/14 07:11:48;;;;;;;5.75;1.42;;;;;;;15.00;57.88;101144.44;1770061;79;27579;-61
2022/06/14 07:14:37;;;;;;;8.05;1.65;;;;;;;14.93;57.74;101131.75;1770240;79;98609;-61
2022/06/14 07:17:20;;;;;;;7.05;1.67;;;;;;;14.97;57.13;101128.41;1759371;80;25893;-61
2022/06/14 07:20:09;;;;;;;12.45;2.02;;;;;;;14.92;56.36;101135.41;1768288;80;98750;-62
2022/06/14 07:22:46;;;;;;;7.83;1.85;;;;;;;14.91;56.68;101130.96;1762678;80;25774;-61
2022/06/14 07:25:18;;;;;;;14.75;1.90;;;;;;;14.98;56.68;101122.06;1770340;78;99010;-61
2022/06/14 07:28:11;;;;;;;8.43;1.27;;;;;;;15.05;56.58;101141.89;1773693;78;26007;-61
2022/06/14 07:30:55;;;;;;;8.33;1.98;;;;;;;15.16;56.39;101146.71;1763752;78;98870;-62
2022/06/14 07:33:25;;;;;;;9.43;1.45;;;;;;;15.15;55.75;101128.29;1769639;78;26018;-61
2022/06/14 07:35:55;;;;;;;5.05;1.35;;;;;;;15.21;55.53;101129.78;1767284;80;99554;-63
2022/06/14 07:38:57;;;;;;;13.33;1.80;;;;;;;15.30;55.75;101150.02;1746770;79;27445;-61
2022/06/14 07:41:40;;;;;;;16.32;1.85;;;;;;;15.32;55.48;101139.99;1774207;78;25698;-61
2022/06/14 07:44:23;;;;;;;8.40;1.62;;;;;;;15.45;55.25;101161.32;1745023;79;98842;-61
2022/06/14 07:50:07;;;;;;;21.68;1.75;;;;;;;15.41;54.89;101138.13;1737240;80;98702;-61
2022/06/14 07:53:08;;;;;;;13.32;1.65;;;;;;;15.43;54.11;101138.45;1745897;80;27428;-61
2022/06/14 07:55:47;;;;;;;10.60;1.50;;;;;;;15.45;54.11;101132.95;1771313;78;99068;-61
2022/06/14 07:58:30;;;;;;;5.87;1.20;;;;;;;15.52;54.23;101133.00;1777423;78;25951;-61
2022/06/14 08:01:07;;;;;;;10.13;1.37;;;;;;;15.49;52.87;101138.10;1738321;79;98832;-61
2022/06/14 08:03:59;;;;;;;15.08;1.95;;;;;;;15.39;53.47;101143.62;1785640;77;25888;-62
2022/06/14 08:06:42;;;;;;;6.87;2.17;;;;;;;15.42;53.47;101136.70;1787681;77;98921;-65
2022/06/14 08:09:28;;;;;;;5.58;1.72;;;;;;;15.49;52.88;101138.10;1792264;77;25989;-64
2022/06/14 08:12:03;;;;;;;5.15;1.25;;;;;;;15.58;52.67;101129.99;1791845;77;98859;-64
2022/06/14 08:14:49;;;;;;;5.92;1.37;;;;;;;15.72;52.26;101146.27;1783300;77;26121;-65
2022/06/14 08:17:20;;;;;;;7.03;1.70;;;;;;;15.74;52.10;101166.45;1784634;77;26166;-65
2022/06/14 08:19:53;;;;;;;;;;;;;;;15.69;51.69;101163.13;1801004;77;98688;-65
2022/06/14 08:22:31;;;;;;;10.60;1.52;;;;;;;15.62;51.53;101166.66;1800236;77;27218;-64
2022/06/14 08:25:03;;;;;;;9.83;1.25;;;;;;;15.52;51.68;101151.92;1776569;78;98765;-64
2022/06/14 08:27:35;;;;;;;5.05;1.52;;;;;;;15.55;51.59;101156.67;1751623;79;26028;-64
2022/06/14 08:30:13;;;;;;;8.70;1.70;;;;;;;15.55;51.61;101157.15;1756011;79;98945;-65
2022/06/14 08:32:59;;;;;;;6.42;1.70;;;;;;;15.59;51.41;101157.41;1760958;78;27385;-66
2022/06/14 08:35:43;;;;;;;10.08;1.50;;;;;;;15.62;51.76;101153.62;1761931;79;27354;-66
2022/06/14 08:38:14;;;;;;;7.65;1.50;;;;;;;15.63;51.36;101164.83;1750558;79;98532;-64
2022/06/14 08:41:11;;;;;;;13.65;2.42;;;;;;;15.55;51.40;101167.95;1747773;79;26630;-64
2022/06/14 08:43:48;;;;;;;13.30;1.12;;;;;;;15.52;51.26;101178.94;1778969;78;99023;-64
2022/06/14 08:46:22;;;;;;;29.20;2.20;;;;;;;15.48;51.49;101162.50;1792948;77;28173;-70
2022/06/14 08:49:16;;;;;;;5.83;2.47;;;;;;;15.71;51.03;101182.84;1790926;77;99342;-66
2022/06/14 08:52:17;;;;;;;11.40;1.30;;;;;;;15.64;50.70;101160.69;1786047;77;25749;-65
2022/06/14 08:55:13;;;;;;;8.40;1.30;;;;;;;15.66;51.00;101166.88;1788444;77;98985;-64
2022/06/14 08:58:35;;;;;;;20.32;2.12;;;;;;;15.74;51.19;101167.32;1790973;77;25743;-65
2022/06/14 09:01:57;;;;;;;7.42;1.40;;;;;;;15.81;50.39;101170.55;1790034;77;98753;-64
2022/06/14 09:04:55;;;;;;;14.07;1.55;;;;;;;15.80;50.34;101157.52;1777218;78;26068;-64
2022/06/14 09:08:00;;;;;;;3.77;1.07;;;;;;;16.04;50.21;101162.48;1760372;78;98887;-64
2022/06/14 09:11:04;;;;;;;9.03;1.40;;;;;;;15.97;48.96;101169.20;1788935;77;26264;-63
2022/06/14 09:13:45;;;;;;;8.00;1.42;;;;;;;15.77;49.13;101158.17;1791800;77;98575;-63
2022/06/14 09:16:33;;;;;;;4.47;1.35;;;;;;;15.70;49.34;101156.30;1776652;78;27455;-66
2022/06/14 09:19:29;;;;;;;6.93;1.30;;;;;;;15.76;49.52;101159.13;1742844;80;98690;-63
2022/06/14 09:22:31;;;;;;;6.42;1.60;;;;;;;15.82;49.53;101161.00;1787929;77;26212;-63
2022/06/14 09:25:36;;;;;;;10.90;1.98;;;;;;;15.95;49.41;101169.77;1784848;77;98742;-64
2022/06/14 09:28:26;;;;;;;7.00;1.67;;;;;;;16.00;49.54;101159.56;1794921;77;26526;-65
2022/06/14 09:31:22;;;;;;;10.95;1.47;;;;;;;16.16;49.47;101164.47;1799298;77;98764;-63
2022/06/14 09:34:28;;;;;;;5.97;1.37;;;;;;;16.25;49.45;101172.05;1801683;77;25741;-63
2022/06/14 09:37:26;;;;;;;8.13;2.05;;;;;;;16.35;49.51;101165.62;1810377;77;98586;-63
2022/06/14 09:40:17;;;;;;;7.70;1.50;;;;;;;16.40;49.15;101165.73;1803726;76;26022;-63
2022/06/14 09:43:10;;;;;;;11.43;2.60;;;;;;;16.27;48.92;101169.25;1803023;76;98730;-63
2022/06/14 09:46:05;;;;;;;9.53;1.75;;;;;;;16.16;49.01;101165.34;1732413;81;27480;-63
2022/06/14 09:49:22;;;;;;;16.23;1.85;;;;;;;16.17;49.20;101164.38;1800930;77;98935;-64
2022/06/14 09:52:02;;;;;;;6.03;1.47;;;;;;;16.20;49.26;101160.62;1804671;76;25724;-64
2022/06/14 09:54:54;;;;;;;4.60;1.70;;;;;;;16.20;48.89;101158.80;1775806;77;98704;-64
2022/06/14 09:57:41;;;;;;;10.63;1.82;;;;;;;16.07;48.87;101160.95;1803233;76;26529;-64
2022/06/14 10:00:37;;;;;;;12.20;1.85;;;;;;;16.01;48.96;101159.47;1800100;77;98925;-64
2022/06/14 10:03:21;;;;;;;10.38;1.55;;;;;;;15.98;48.97;101156.07;1799328;76;25935;-66
2022/06/14 10:06:32;;;;;;;18.20;1.52;;;;;;;16.02;48.99;101161.21;1801528;76;25754;-65
2022/06/14 10:09:36;;;;;;;13.03;2.08;;;;;;;16.01;48.64;101172.12;1803257;76;26135;-65
2022/06/14 10:12:49;;;;;;;27.07;3.40;;;;;;;15.98;48.52;101163.70;1756673;79;25731;-65
2022/06/14 10:15:30;;;;;;;11.65;2.00;;;;;;;16.07;48.68;101160.95;1760473;79;27324;-65
2022/06/14 10:18:24;;;;;;;14.03;2.23;;;;;;;16.11;48.52;101166.56;1797551;77;25801;-65
2022/06/14 10:21:01;;;;;;;11.85;1.52;;;;;;;16.11;48.54;101172.84;1822106;76;99002;-64
2022/06/14 10:23:48;;;;;;;9.93;1.62;;;;;;;16.10;48.41;101171.59;1802931;78;26810;-64
2022/06/14 10:30:12;;;;;;;7.42;1.45;;;;;;;16.10;48.01;101178.34;1803614;76;27439;-64
2022/06/14 10:32:43;;;;;;;9.05;1.60;;;;;;;16.15;48.10;101174.41;1805147;77;99094;-64
2022/06/14 10:35:34;;;;;;;9.25;1.92;;;;;;;16.14;48.31;101167.27;1802285;78;25728;-65
2022/06/14 10:38:42;;;;;;;9.05;1.77;;;;;;;16.09;48.38;101172.06;1808969;78;98797;-64
2022/06/14 10:41:19;;;;;;;9.85;1.50;;;;;;;16.04;48.54;101170.59;1807766;76;25985;-65
2022/06/14 10:44:12;;;;;;;13.43;1.82;;;;;;;15.99;48.67;101175.39;1801023;77;98778;-65
2022/06/14 10:46:43;;;;;;;6.08;1.55;;;;;;;15.91;48.78;101171.29;1816877;76;25740;-64
2022/06/14 10:49:39;;;;;;;8.18;1.60;;;;;;;15.83;48.95;101171.33;1817332;76;98801;-65
2022/06/14 10:52:28;;;;;;;7.50;1.82;;;;;;;15.85;49.10;101185.64;1812673;77;26064;-66
2022/06/14 10:55:36;;;;;;;14.07;1.82;;;;;;;15.95;49.12;101190.05;1806910;77;99169;-64
2022/06/14 10:58:10;;;;;;;13.45;2.52;;;;;;;15.94;49.03;101169.37;1802288;78;27574;-65
2022/06/14 11:00:42;;;;;;;11.35;2.33;;;;;;;16.03;49.36;101181.02;1801951;78;25781;-65
2022/06/14 11:03:51;;;;;;;14.10;2.15;;;;;;;16.14;49.45;101179.91;1801592;77;98764;-65
2022/06/14 11:06:41;;;;;;;8.28;1.70;;;;;;;16.32;49.39;101183.38;1805945;76;26159;-65
2022/06/14 11:09:30;;;;;;;7.15;2.08;;;;;;;16.36;49.26;101165.52;1802375;77;98694;-66
2022/06/14 11:12:29;;;;;;;4.60;1.82;;;;;;;16.26;48.93;101169.73;1807105;76;27413;-66
2022/06/14 11:15:29;;;;;;;5.30;1.10;;;;;;;16.08;49.06;101168.10;1816020;76;99214;-65
2022/06/14 11:18:17;;;;;;;13.43;1.90;;;;;;;16.00;48.98;101171.72;1802548;76;25784;-65
2022/06/14 11:21:10;;;;;;;11.18;2.12;;;;;;;15.87;49.18;101176.48;1801129;76;98829;-66
2022/06/14 11:24:23;;;;;;;12.50;2.12;;;;;;;15.94;49.21;101174.78;1801806;78;25753;-65
2022/06/14 11:27:04;;;;;;;13.15;1.95;;;;;;;16.03;49.21;101175.13;1768430;78;98862;-69
2022/06/14 11:29:55;;;;;;;11.03;2.10;;;;;;;16.04;49.39;101175.52;1741557;80;25940;-66
2022/06/14 11:32:47;;;;;;;17.30;1.90;;;;;;;16.08;49.32;101195.14;1735739;80;98931;-66
2022/06/14 11:35:21;;;;;;;10.00;1.60;;;;;;;15.96;49.11;101193.14;1765165;80;26127;-66
2022/06/14 11:38:17;;;;;;;10.00;2.27;;;;;;;15.92;49.38;101193.80;1752022;80;98937;-66
2022/06/14 11:40:47;;;;;;;10.68;1.70;;;;;;;15.96;49.37;101179.62;1761756;78;27525;-65
2022/06/14 11:43:51;;;;;;;6.87;1.45;;;;;;;15.89;49.45;101195.31;1767985;80;99064;-65
2022/06/14 11:46:46;;;;;;;7.97;1.92;;;;;;;15.88;49.62;101202.55;1762562;80;25856;-66
2022/06/14 11:49:33;;;;;;;9.55;2.27;;;;;;;15.89;49.57;101193.48;1811611;78;98738;-66
2022/06/14 11:52:18;;;;;;;26.77;2.25;;;;;;;16.01;49.55;101197.33;1815758;77;26399;-66
2022/06/14 11:55:18;;;;;;;13.65;2.37;;;;;;;16.15;49.55;101193.83;1819578;77;28224;-66
2022/06/14 11:57:53;;;;;;;17.40;2.45;;;;;;;16.33;49.59;101196.81;1773413;78;25893;-65
2022/06/14 12:01:04;;;;;;;8.78;1.70;;;;;;;16.50;49.32;101198.05;1813790;77;25870;-67
2022/06/14 12:03:53;;;;;;;16.45;2.27;;;;;;;16.49;48.78;101197.66;1823775;77;98477;-64
2022/06/14 12:06:57;;;;;;;6.12;1.62;;;;;;;16.26;48.51;101191.86;1810466;78;25653;-66
2022/06/14 12:10:07;;;;;;;13.80;2.05;;;;;;;16.15;48.61;101197.41;1811911;78;98669;-66
2022/06/14 12:12:57;;;;;;;12.07;2.52;;;;;;;16.06;48.47;101188.47;1804495;78;25837;-65
2022/06/14 12:15:46;;;;;;;10.75;1.42;;;;;;;16.01;48.65;101198.67;1805815;76;98951;-65
2022/06/14 12:18:17;;;;;;;13.18;1.90;;;;;;;16.04;48.62;101197.15;1818843;76;26609;-65
2022/06/14 12:20:57;;;;;;;32.10;3.15;;;;;;;16.02;48.55;101200.42;1806816;76;98703;-64
2022/06/14 12:23:42;;;;;;;11.15;2.08;;;;;;;16.00;48.70;101216.34;1811654;78;27460;-66
2022/06/14 12:26:36;;;;;;;6.55;1.70;;;;;;;16.05;48.33;101208.84;1786156;78;99269;-64
2022/06/14 12:29:25;;;;;;;10.20;1.85;;;;;;;16.01;48.64;101208.62;1817175;78;25766;-66
2022/06/14 12:32:24;;;;;;;6.30;1.22;;;;;;;16.03;48.30;101204.87;1804098;78;99091;-64
2022/06/14 12:34:57;;;;;;;6.72;1.67;;;;;;;16.08;48.53;101201.90;1805132;78;26611;-66
2022/06/14 12:37:51;;;;;;;9.83;1.90;;;;;;;16.20;48.53;101201.20;1804443;76;98693;-66
2022/06/14 12:40:32;;;;;;;5.42;1.92;;;;;;;16.35;48.57;101207.07;1822749;76;25807;-66
2022/06/14 12:43:03;;;;;;;15.48;2.00;;;;;;;16.50;48.39;101198.05;1815260;78;25859;-65
2022/06/14 12:45:41;;;;;;;7.58;1.85;;;;;;;16.67;48.43;101187.61;1807585;78;98695;-65
2022/06/14 12:48:38;;;;;;;7.72;1.55;;;;;;;16.89;47.96;101200.72;1806925;78;25805;-65
2022/06/14 12:51:37;;;;;;;8.18;1.45;;;;;;;16.89;47.54;101193.95;1820329;76;98695;-68
2022/06/14 12:54:41;;;;;;;6.80;1.50;;;;;;;16.82;47.34;101191.23;1809387;78;25576;-66